Time;durP1;ratioP1;P1;durP2;ratioP2;P2;SDS_P1;SDS_P2;PMS_P1;PMS_P2;Temp;Humidity;BMP_temperature;BMP_pressure;BME280_temperature;BME280_humidity;BME280_pressure;Samples;Min_cycle;Max_cycle;Signal;HPM_P1;HPM_P2
2023/11/03 00:00:28;;;;;;;1.53;1.10;;;6.20;99.90;;;;;;5051779;28;20506;-69
2023/11/03 00:02:57;;;;;;;4.23;1.73;;;6.20;99.90;;;;;;5051447;28;20239;-69
2023/11/03 00:05:23;;;;;;;3.37;1.67;;;6.20;99.90;;;;;;5054512;28;20162;-69
2023/11/03 00:07:48;;;;;;;2.50;1.50;;;6.10;99.90;;;;;;5055797;28;20416;-69
2023/11/03 00:10:15;;;;;;;1.83;1.00;;;6.10;99.90;;;;;;5055522;28;20196;-69
2023/11/03 00:12:40;;;;;;;2.23;1.27;;;6.10;99.90;;;;;;5055253;28;20257;-69
2023/11/03 00:15:09;;;;;;;4.00;1.17;;;6.10;99.90;;;;;;5055510;28;20494;-69
2023/11/03 00:17:37;;;;;;;2.07;1.33;;;6.00;99.90;;;;;;5055451;28;20252;-69
2023/11/03 00:20:03;;;;;;;1.40;1.30;;;6.00;99.90;;;;;;5055255;28;20537;-69
2023/11/03 00:22:28;;;;;;;1.70;1.60;;;6.00;99.90;;;;;;5055316;28;20420;-69
2023/11/03 00:24:54;;;;;;;1.40;1.10;;;6.00;99.90;;;;;;5055053;28;20477;-69
2023/11/03 00:27:21;;;;;;;8.87;2.27;;;6.00;99.90;;;;;;5055260;28;20169;-69
2023/11/03 00:29:46;;;;;;;4.00;1.20;;;6.00;99.90;;;;;;5055147;28;20785;-69
2023/11/03 00:32:15;;;;;;;2.63;1.10;;;6.00;99.90;;;;;;5055057;28;20439;-69
2023/11/03 00:34:40;;;;;;;1.40;1.13;;;6.00;99.90;;;;;;5054823;28;20166;-69
2023/11/03 00:37:07;;;;;;;3.30;1.47;;;6.00;99.90;;;;;;5055080;28;20420;-69
2023/11/03 00:39:32;;;;;;;3.93;1.20;;;6.00;99.90;;;;;;5054991;28;20613;-69
2023/11/03 00:41:58;;;;;;;6.27;1.17;;;5.90;99.90;;;;;;5054941;28;20435;-69
2023/11/03 00:44:25;;;;;;;2.90;1.80;;;5.90;99.90;;;;;;5054655;28;20177;-69
2023/11/03 00:46:51;;;;;;;4.80;1.67;;;5.90;99.90;;;;;;5054942;28;20166;-69
2023/11/03 00:49:18;;;;;;;4.20;1.50;;;5.80;99.90;;;;;;5054788;28;20446;-69
2023/11/03 00:51:44;;;;;;;8.60;1.70;;;5.80;99.90;;;;;;5054732;28;20811;-69
2023/11/03 00:54:10;;;;;;;5.47;1.70;;;5.80;99.90;;;;;;5054482;28;20416;-69
2023/11/03 00:56:36;;;;;;;4.80;1.60;;;5.80;99.90;;;;;;5054749;28;20436;-69
2023/11/03 00:59:05;;;;;;;5.63;1.83;;;5.70;99.90;;;;;;5054662;28;20205;-69
2023/11/03 01:01:31;;;;;;;5.60;1.57;;;5.70;99.90;;;;;;5054955;28;20666;-69
2023/11/03 01:03:57;;;;;;;6.23;1.37;;;5.70;99.90;;;;;;5054446;28;20507;-69
2023/11/03 01:06:23;;;;;;;5.00;2.07;;;5.70;99.90;;;;;;5054554;28;20872;-69
2023/11/03 01:08:51;;;;;;;2.47;1.43;;;5.80;99.90;;;;;;5054531;28;20544;-69
2023/11/03 01:11:20;;;;;;;3.07;1.00;;;5.80;99.90;;;;;;5036694;28;20225;-69
2023/11/03 01:13:45;;;;;;;5.87;1.73;;;5.80;99.90;;;;;;5054115;28;20432;-69
2023/11/03 01:16:13;;;;;;;3.07;1.73;;;5.70;99.90;;;;;;5054227;28;20424;-69
2023/11/03 01:18:39;;;;;;;3.23;1.90;;;5.80;99.90;;;;;;5054236;28;20661;-69
2023/11/03 01:21:12;;;;;;;3.53;1.40;;;5.80;99.90;;;;;;5054213;28;20443;-69
2023/11/03 01:23:41;;;;;;;4.20;1.40;;;5.80;99.90;;;;;;5053940;28;20404;-69
2023/11/03 01:26:10;;;;;;;3.83;1.53;;;5.70;99.90;;;;;;5054187;28;20417;-69
2023/11/03 01:28:36;;;;;;;4.00;1.70;;;5.80;99.90;;;;;;5054053;28;20416;-69
2023/11/03 01:31:04;;;;;;;5.60;1.60;;;5.80;99.90;;;;;;5053871;28;20526;-69
2023/11/03 01:33:33;;;;;;;4.90;2.30;;;5.80;99.90;;;;;;5053767;28;20413;-69
2023/11/03 01:35:58;;;;;;;7.33;2.50;;;5.90;99.90;;;;;;5053975;28;20447;-69
2023/11/03 01:38:24;;;;;;;3.70;1.63;;;5.90;99.90;;;;;;5053914;28;20407;-69
2023/11/03 01:40:50;;;;;;;5.17;1.70;;;5.90;99.90;;;;;;5053717;28;20211;-69
2023/11/03 01:43:16;;;;;;;7.73;1.77;;;5.90;99.90;;;;;;5053528;28;20483;-69
2023/11/03 01:45:41;;;;;;;4.20;1.60;;;5.90;99.90;;;;;;5053719;28;20173;-69
2023/11/03 01:48:07;;;;;;;4.50;1.10;;;5.90;99.90;;;;;;5053777;28;20170;-69
2023/11/03 01:50:35;;;;;;;5.03;1.57;;;5.90;99.90;;;;;;5053633;28;20288;-69
2023/11/03 01:53:02;;;;;;;2.40;1.20;;;5.90;99.90;;;;;;5053389;28;20415;-69
2023/11/03 01:55:29;;;;;;;3.70;1.60;;;5.90;99.90;;;;;;5053568;28;20943;-68
2023/11/03 01:57:55;;;;;;;3.73;1.23;;;5.90;99.90;;;;;;5053443;28;20412;-69
2023/11/03 02:00:22;;;;;;;5.90;1.13;;;5.90;99.90;;;;;;5053458;28;20984;-69
2023/11/03 02:02:49;;;;;;;4.97;1.40;;;5.90;99.90;;;;;;5053202;28;20416;-69
2023/11/03 02:05:15;;;;;;;3.70;1.03;;;5.80;99.90;;;;;;5053511;28;20416;-69
2023/11/03 02:07:41;;;;;;;3.40;1.27;;;5.80;99.90;;;;;;5053181;28;20523;-69
2023/11/03 02:10:07;;;;;;;2.07;1.10;;;5.80;99.90;;;;;;5053284;28;20915;-69
2023/11/03 02:12:33;;;;;;;4.73;1.50;;;5.80;99.90;;;;;;5053139;28;20173;-69
2023/11/03 02:14:59;;;;;;;3.13;1.10;;;5.80;99.90;;;;;;5053214;28;20786;-69
2023/11/03 02:17:25;;;;;;;2.80;0.97;;;5.70;99.90;;;;;;5053363;28;20420;-69
2023/11/03 02:19:52;;;;;;;2.03;1.03;;;5.70;99.90;;;;;;5053328;28;20208;-69
2023/11/03 02:22:17;;;;;;;7.70;1.67;;;5.70;99.90;;;;;;5053242;28;20412;-69
2023/11/03 02:24:43;;;;;;;3.80;1.67;;;5.70;99.90;;;;;;5052795;28;20413;-69
2023/11/03 02:27:08;;;;;;;4.93;1.13;;;5.70;99.90;;;;;;5052407;28;20712;-69
2023/11/03 02:29:34;;;;;;;4.53;1.30;;;5.70;99.90;;;;;;5052937;28;20724;-69
2023/11/03 02:32:00;;;;;;;4.60;1.43;;;5.70;99.90;;;;;;5052769;28;20712;-69
2023/11/03 02:34:25;;;;;;;6.67;1.27;;;5.70;99.90;;;;;;5052502;28;20647;-69
2023/11/03 02:36:52;;;;;;;4.40;1.40;;;5.70;99.90;;;;;;5052888;28;20178;-69
2023/11/03 02:39:18;;;;;;;6.03;1.50;;;5.70;99.90;;;;;;5052713;28;20194;-69
2023/11/03 02:41:43;;;;;;;3.63;0.97;;;5.70;99.90;;;;;;5052564;28;20498;-69
2023/11/03 02:44:09;;;;;;;4.07;1.57;;;5.80;99.90;;;;;;5052405;28;20174;-69
2023/11/03 02:46:34;;;;;;;5.60;1.50;;;5.70;99.90;;;;;;5052599;28;20180;-68
2023/11/03 02:49:00;;;;;;;3.70;1.63;;;5.80;99.90;;;;;;5052620;28;20247;-69
2023/11/03 02:51:25;;;;;;;3.03;1.20;;;5.70;99.90;;;;;;5052456;28;20193;-69
2023/11/03 02:53:51;;;;;;;4.57;1.30;;;5.80;99.90;;;;;;5052214;28;20658;-68
2023/11/03 02:56:24;;;;;;;2.40;1.27;;;5.80;99.90;;;;;;5052348;28;20650;-68
2023/11/03 02:58:50;;;;;;;2.20;1.30;;;5.70;99.90;;;;;;5052315;28;20592;-69
2023/11/03 03:01:15;;;;;;;3.13;1.60;;;5.70;99.90;;;;;;5052351;28;20443;-69
2023/11/03 03:03:41;;;;;;;5.87;1.67;;;5.70;99.90;;;;;;5052077;28;20427;-69
2023/11/03 03:06:07;;;;;;;3.63;1.20;;;5.70;99.90;;;;;;5052305;28;20568;-68
2023/11/03 03:08:32;;;;;;;4.03;2.47;;;5.70;99.90;;;;;;5052202;28;20235;-69
2023/11/03 03:11:00;;;;;;;3.47;1.20;;;5.70;99.90;;;;;;5052135;28;20236;-69
2023/11/03 03:13:26;;;;;;;2.30;0.80;;;5.70;99.90;;;;;;5051962;28;20172;-68
2023/11/03 03:15:51;;;;;;;3.03;1.60;;;5.70;99.90;;;;;;5052188;28;20498;-69
2023/11/03 03:18:17;;;;;;;4.57;1.60;;;5.70;99.90;;;;;;5052196;28;20228;-69
2023/11/03 03:20:42;;;;;;;8.60;1.60;;;5.70;99.90;;;;;;5052070;28;20289;-69
2023/11/03 03:23:08;;;;;;;3.80;1.20;;;5.60;99.90;;;;;;5051839;28;20173;-69
2023/11/03 03:25:34;;;;;;;2.40;0.80;;;5.70;99.90;;;;;;5051999;28;20177;-68
2023/11/03 03:27:59;;;;;;;2.43;1.30;;;5.70;99.90;;;;;;5052088;28;20169;-69
2023/11/03 03:30:25;;;;;;;3.60;0.80;;;5.70;99.90;;;;;;5034085;28;20205;-69
2023/11/03 03:32:51;;;;;;;11.80;1.47;;;5.70;99.90;;;;;;5051710;28;20178;-69
2023/11/03 03:35:16;;;;;;;3.20;1.70;;;5.70;99.90;;;;;;5052055;28;20424;-68
2023/11/03 03:37:42;;;;;;;6.50;1.10;;;5.70;99.90;;;;;;5051961;28;20181;-69
2023/11/03 03:40:08;;;;;;;1.43;1.33;;;5.70;99.90;;;;;;5050779;28;20209;-69
2023/11/03 03:42:34;;;;;;;1.77;1.07;;;5.70;99.90;;;;;;5051817;28;20284;-68
2023/11/03 03:45:00;;;;;;;2.00;1.17;;;5.70;99.90;;;;;;5051819;28;20474;-68
2023/11/03 03:47:25;;;;;;;2.57;1.83;;;5.70;99.90;;;;;;5051855;28;20780;-69
2023/11/03 03:49:51;;;;;;;5.03;1.83;;;5.60;99.90;;;;;;5051955;28;20212;-69
2023/11/03 03:52:16;;;;;;;3.37;1.07;;;5.60;99.90;;;;;;5051841;28;20280;-69
2023/11/03 03:54:42;;;;;;;4.23;1.30;;;5.60;99.90;;;;;;5051438;28;20178;-69
2023/11/03 03:57:07;;;;;;;4.33;1.47;;;5.60;99.90;;;;;;5051769;28;20566;-69
2023/11/03 03:59:33;;;;;;;3.03;1.73;;;5.60;99.90;;;;;;5051675;28;20240;-69
2023/11/03 04:01:58;;;;;;;2.50;1.30;;;5.60;99.90;;;;;;5051660;28;20186;-69
2023/11/03 04:04:25;;;;;;;1.97;1.33;;;5.60;99.90;;;;;;5051446;28;20621;-69
2023/11/03 04:06:50;;;;;;;4.00;1.33;;;5.60;99.90;;;;;;5051708;28;20562;-69
2023/11/03 04:09:16;;;;;;;3.43;2.00;;;5.50;99.90;;;;;;5051771;28;20427;-69
2023/11/03 04:11:42;;;;;;;1.53;1.30;;;5.50;99.90;;;;;;5051778;28;20731;-69
2023/11/03 04:14:07;;;;;;;1.53;1.30;;;5.50;99.90;;;;;;5051323;28;20177;-69
2023/11/03 04:16:34;;;;;;;3.50;1.43;;;5.50;99.90;;;;;;5051611;28;20173;-69
2023/11/03 04:18:59;;;;;;;2.67;1.50;;;5.60;99.90;;;;;;5051479;28;20848;-69
2023/11/03 04:21:25;;;;;;;3.50;1.63;;;5.70;99.90;;;;;;5051500;28;20446;-69
2023/11/03 04:23:50;;;;;;;3.40;1.23;;;5.80;99.90;;;;;;5051014;28;20526;-69
2023/11/03 04:26:16;;;;;;;2.13;1.93;;;5.90;99.90;;;;;;5051536;28;20170;-69
2023/11/03 04:28:41;;;;;;;2.43;1.20;;;6.00;99.90;;;;;;5051586;28;20174;-69
2023/11/03 04:31:07;;;;;;;1.97;1.73;;;6.00;99.90;;;;;;5051196;28;20205;-69
2023/11/03 04:33:32;;;;;;;2.70;1.40;;;6.10;99.90;;;;;;5051135;28;20180;-69
2023/11/03 04:35:58;;;;;;;1.57;1.30;;;6.20;99.90;;;;;;5050819;28;20253;-69
2023/11/03 04:38:23;;;;;;;4.93;1.30;;;6.20;99.90;;;;;;5051382;28;20576;-69
2023/11/03 04:40:49;;;;;;;5.53;1.90;;;6.30;99.90;;;;;;5051473;28;20232;-69
2023/11/03 04:43:14;;;;;;;4.50;1.23;;;6.20;99.90;;;;;;5051016;28;20197;-69
2023/11/03 04:45:40;;;;;;;3.73;1.47;;;6.30;99.90;;;;;;5051289;28;20244;-69
2023/11/03 04:48:06;;;;;;;2.40;1.30;;;6.30;99.90;;;;;;5051335;28;20193;-69
2023/11/03 04:50:32;;;;;;;4.53;1.40;;;6.20;99.90;;;;;;5052546;28;20228;-69
2023/11/03 04:52:57;;;;;;;3.33;2.00;;;6.30;99.90;;;;;;5054518;28;20876;-69
2023/11/03 04:55:23;;;;;;;5.40;1.63;;;6.30;99.90;;;;;;5054806;28;20197;-69
2023/11/03 04:57:48;;;;;;;2.40;1.30;;;6.40;99.90;;;;;;5054771;28;20540;-69
2023/11/03 05:00:14;;;;;;;1.80;1.20;;;6.40;99.90;;;;;;5054590;28;20201;-69
2023/11/03 05:02:40;;;;;;;3.40;1.73;;;6.50;99.90;;;;;;5054376;28;20169;-69
2023/11/03 05:05:06;;;;;;;5.90;1.63;;;6.40;99.90;;;;;;5054647;28;20582;-69
2023/11/03 05:07:33;;;;;;;3.90;1.90;;;6.40;99.90;;;;;;5054581;28;20177;-69
2023/11/03 05:09:59;;;;;;;4.03;1.30;;;6.40;99.90;;;;;;5054477;28;20423;-69
2023/11/03 05:12:25;;;;;;;4.80;1.83;;;6.30;99.90;;;;;;5054380;28;20928;-69
2023/11/03 05:14:50;;;;;;;1.93;1.20;;;6.20;99.90;;;;;;5054156;28;20419;-69
2023/11/03 05:17:16;;;;;;;6.73;1.97;;;6.20;99.90;;;;;;5054401;28;20185;-69
2023/11/03 05:19:41;;;;;;;2.07;1.60;;;6.20;99.90;;;;;;5054379;28;20201;-69
2023/11/03 05:22:07;;;;;;;2.40;1.60;;;6.20;99.90;;;;;;5054287;28;20590;-69
2023/11/03 05:24:32;;;;;;;2.20;1.23;;;6.30;99.90;;;;;;5053916;28;20174;-69
2023/11/03 05:26:58;;;;;;;4.00;1.20;;;6.30;99.90;;;;;;5054250;28;20599;-69
2023/11/03 05:29:24;;;;;;;7.53;1.37;;;6.30;99.90;;;;;;5054173;28;20197;-69
2023/11/03 05:31:50;;;;;;;2.60;1.40;;;6.30;99.90;;;;;;5054411;28;20245;-68
2023/11/03 05:34:15;;;;;;;1.73;1.20;;;6.30;99.90;;;;;;5053745;28;20200;-68
2023/11/03 05:36:41;;;;;;;7.67;1.70;;;6.30;99.90;;;;;;5053988;28;20871;-68
2023/11/03 05:39:08;;;;;;;9.77;2.10;;;6.30;99.90;;;;;;5053853;28;20705;-68
2023/11/03 05:41:34;;;;;;;3.73;1.50;;;6.30;99.90;;;;;;5053742;28;20235;-68
2023/11/03 05:43:59;;;;;;;2.17;1.27;;;6.30;99.90;;;;;;5053592;28;20870;-68
2023/11/03 05:46:25;;;;;;;4.53;1.83;;;6.30;99.90;;;;;;5053793;28;20662;-69
2023/11/03 05:48:52;;;;;;;7.37;1.77;;;6.30;99.90;;;;;;5053883;28;20546;-68
2023/11/03 05:51:21;;;;;;;4.40;1.90;;;6.30;99.90;;;;;;5053620;28;20443;-68
2023/11/03 05:53:46;;;;;;;6.80;1.80;;;6.30;99.90;;;;;;5053350;28;20408;-68
2023/11/03 05:56:12;;;;;;;3.73;1.60;;;6.30;99.90;;;;;;5053573;28;20986;-68
2023/11/03 05:58:37;;;;;;;2.97;1.37;;;6.30;99.90;;;;;;5053570;28;20170;-68
2023/11/03 06:01:04;;;;;;;4.30;2.03;;;6.30;99.90;;;;;;5053263;28;20708;-68
2023/11/03 06:03:30;;;;;;;3.03;1.60;;;6.40;99.90;;;;;;5052646;28;20307;-68
2023/11/03 06:05:55;;;;;;;2.43;2.20;;;6.40;99.90;;;;;;5053511;28;20925;-69
2023/11/03 06:08:22;;;;;;;5.70;2.40;;;6.40;99.90;;;;;;5053459;28;20201;-68
2023/11/03 06:10:50;;;;;;;2.60;1.33;;;6.40;99.90;;;;;;5053202;28;20239;-68
2023/11/03 06:13:16;;;;;;;1.80;1.33;;;6.40;99.90;;;;;;5053015;28;20416;-68
2023/11/03 06:15:41;;;;;;;8.90;2.00;;;6.40;99.90;;;;;;5048735;28;20474;-68
2023/11/03 06:18:07;;;;;;;2.30;1.60;;;6.40;99.90;;;;;;5049037;28;20918;-69
2023/11/03 06:20:32;;;;;;;3.10;1.50;;;6.40;99.90;;;;;;5053000;28;20212;-68
2023/11/03 06:22:58;;;;;;;5.50;1.60;;;6.40;99.90;;;;;;5052770;28;20525;-68
2023/11/03 06:25:23;;;;;;;11.83;2.43;;;6.40;99.90;;;;;;5052951;28;20646;-69
2023/11/03 06:27:49;;;;;;;3.37;1.50;;;6.40;99.90;;;;;;5053027;28;20642;-68
2023/11/03 06:30:14;;;;;;;5.73;1.77;;;6.50;99.90;;;;;;5052805;28;20675;-68
2023/11/03 06:32:40;;;;;;;3.53;1.80;;;6.50;99.90;;;;;;5052545;28;20196;-68
2023/11/03 06:35:06;;;;;;;4.00;1.70;;;6.50;99.90;;;;;;5052772;28;20661;-68
2023/11/03 06:37:31;;;;;;;2.03;1.17;;;6.50;99.90;;;;;;5052850;28;20174;-68
2023/11/03 06:39:57;;;;;;;4.60;1.57;;;6.50;99.90;;;;;;5052561;28;20201;-68
2023/11/03 06:42:23;;;;;;;6.30;2.63;;;6.50;99.90;;;;;;5052688;28;20170;-68
2023/11/03 06:44:49;;;;;;;2.17;1.43;;;6.50;99.90;;;;;;5052186;28;20176;-69
2023/11/03 06:47:15;;;;;;;3.17;1.57;;;6.50;99.90;;;;;;5052687;28;20895;-69
2023/11/03 06:49:46;;;;;;;2.60;1.53;;;6.40;99.90;;;;;;5052619;28;20177;-68
2023/11/03 06:52:12;;;;;;;4.40;1.67;;;6.40;99.90;;;;;;5052537;28;20250;-68
2023/11/03 06:54:38;;;;;;;6.10;1.60;;;6.40;99.90;;;;;;5052154;28;20495;-69
2023/11/03 06:57:06;;;;;;;1.90;1.60;;;6.50;99.90;;;;;;5052577;28;20181;-68
2023/11/03 06:59:35;;;;;;;3.60;1.87;;;6.50;99.90;;;;;;5052465;28;20455;-68
2023/11/03 07:02:00;;;;;;;3.40;1.53;;;6.50;99.90;;;;;;5052338;28;21007;-68
2023/11/03 07:04:26;;;;;;;2.27;1.37;;;6.50;99.90;;;;;;5052048;28;20419;-68
2023/11/03 07:06:52;;;;;;;2.03;1.47;;;6.50;99.90;;;;;;5052272;28;20169;-68
2023/11/03 07:09:18;;;;;;;7.10;2.50;;;6.50;99.90;;;;;;5052281;28;20182;-68
2023/11/03 07:11:44;;;;;;;7.40;2.07;;;6.50;99.90;;;;;;5052179;28;20644;-69
2023/11/03 07:14:10;;;;;;;2.60;1.73;;;6.60;99.90;;;;;;5051849;28;20427;-68
2023/11/03 07:16:39;;;;;;;4.23;1.60;;;6.60;99.90;;;;;;5052164;28;20781;-68
2023/11/03 07:19:06;;;;;;;8.63;5.60;;;6.60;99.90;;;;;;5052068;28;20201;-68
2023/11/03 07:21:32;;;;;;;6.03;2.73;;;6.70;99.90;;;;;;5051903;28;20462;-69
2023/11/03 07:23:57;;;;;;;5.27;2.63;;;6.80;99.90;;;;;;5051826;28;20901;-69
2023/11/03 07:26:23;;;;;;;4.07;1.97;;;6.80;99.90;;;;;;5051939;28;20174;-68
2023/11/03 07:28:49;;;;;;;6.03;2.73;;;6.80;99.90;;;;;;5052028;28;20168;-68
2023/11/03 07:31:16;;;;;;;3.03;1.40;;;6.80;99.90;;;;;;5051828;28;20538;-68
2023/11/03 07:33:41;;;;;;;3.07;1.93;;;6.80;99.90;;;;;;5051818;28;20216;-69
2023/11/03 07:36:11;;;;;;;4.73;2.07;;;6.90;99.90;;;;;;5051893;28;20416;-68
2023/11/03 07:38:37;;;;;;;9.63;3.70;;;6.90;99.90;;;;;;5051934;28;20173;-68
2023/11/03 07:41:03;;;;;;;3.70;2.07;;;6.90;99.90;;;;;;5051780;28;20455;-69
2023/11/03 07:43:30;;;;;;;6.30;3.10;;;7.00;99.90;;;;;;5051591;28;20165;-69
2023/11/03 07:45:55;;;;;;;5.37;2.03;;;7.00;99.90;;;;;;5051906;28;20455;-68
2023/11/03 07:48:22;;;;;;;7.07;2.97;;;7.10;99.90;;;;;;5051911;28;20467;-69
2023/11/03 07:50:48;;;;;;;6.17;2.57;;;7.10;99.90;;;;;;5051645;28;20280;-68
2023/11/03 07:53:13;;;;;;;3.60;2.13;;;7.10;99.90;;;;;;5051557;28;20558;-68
2023/11/03 07:55:39;;;;;;;3.53;2.10;;;7.10;99.90;;;;;;5051800;28;20166;-68
2023/11/03 07:58:05;;;;;;;6.13;4.47;;;7.20;99.90;;;;;;5051766;28;20227;-68
2023/11/03 08:00:31;;;;;;;3.33;2.83;;;7.20;99.90;;;;;;5033839;28;20686;-68
2023/11/03 08:02:59;;;;;;;4.73;1.63;;;7.30;99.90;;;;;;5022294;28;20437;-68
2023/11/03 08:05:25;;;;;;;2.00;1.50;;;7.30;99.90;;;;;;5031686;28;20428;-68
2023/11/03 08:07:51;;;;;;;4.13;1.50;;;7.30;99.90;;;;;;5031813;28;20417;-69
2023/11/03 08:10:16;;;;;;;2.83;1.47;;;7.30;99.90;;;;;;5031619;28;20194;-68
2023/11/03 08:12:42;;;;;;;4.00;1.40;;;7.30;99.90;;;;;;5041124;28;20605;-68
2023/11/03 08:15:08;;;;;;;2.50;1.60;;;7.40;99.90;;;;;;5033541;28;20180;-68
2023/11/03 08:17:35;;;;;;;3.27;1.43;;;7.40;99.90;;;;;;5045640;28;20185;-69
2023/11/03 08:20:01;;;;;;;1.70;1.40;;;7.40;99.90;;;;;;5050714;28;20538;-69
2023/11/03 08:22:29;;;;;;;5.83;1.87;;;7.50;99.90;;;;;;5051319;28;21051;-68
2023/11/03 08:24:55;;;;;;;5.13;2.90;;;7.60;99.90;;;;;;5051550;28;20420;-69
2023/11/03 08:27:20;;;;;;;3.97;1.10;;;7.60;99.90;;;;;;5055077;28;20411;-68
2023/11/03 08:29:47;;;;;;;2.90;1.50;;;7.60;99.90;;;;;;5054533;28;20423;-68
2023/11/03 08:32:13;;;;;;;2.40;1.70;;;7.70;99.90;;;;;;5053849;28;20294;-68
2023/11/03 08:34:40;;;;;;;5.83;1.57;;;7.80;99.90;;;;;;5054347;28;20463;-69
2023/11/03 08:37:05;;;;;;;2.80;1.20;;;7.90;99.90;;;;;;5055070;28;20455;-69
2023/11/03 08:39:31;;;;;;;3.93;1.40;;;7.90;99.90;;;;;;5054973;28;20197;-68
2023/11/03 08:42:01;;;;;;;2.40;1.10;;;8.00;99.90;;;;;;5054863;28;20193;-68
2023/11/03 08:44:27;;;;;;;1.37;1.27;;;8.00;99.90;;;;;;5054679;28;20423;-68
2023/11/03 08:46:52;;;;;;;1.40;1.20;;;8.10;99.90;;;;;;5054861;28;20411;-68
2023/11/03 08:49:18;;;;;;;3.73;1.60;;;8.00;99.90;;;;;;5054804;28;20177;-69
2023/11/03 08:51:43;;;;;;;5.53;3.13;;;8.10;99.90;;;;;;5054736;28;20640;-68
2023/11/03 08:54:11;;;;;;;4.50;1.47;;;8.20;99.90;;;;;;5054586;28;20226;-68
2023/11/03 08:56:38;;;;;;;1.80;1.30;;;8.30;99.90;;;;;;5054799;28;20181;-69
2023/11/03 08:59:04;;;;;;;3.10;1.80;;;8.40;99.90;;;;;;5054598;28;20778;-68
2023/11/03 09:01:29;;;;;;;4.97;1.70;;;8.40;99.90;;;;;;5054436;28;20436;-69
2023/11/03 09:03:55;;;;;;;1.90;1.53;;;8.40;99.90;;;;;;5054303;28;20526;-69
2023/11/03 09:06:21;;;;;;;1.50;1.33;;;8.40;99.90;;;;;;5054787;28;20174;-68
2023/11/03 09:08:46;;;;;;;2.13;1.90;;;8.40;99.90;;;;;;5054567;28;20624;-69
2023/11/03 09:11:12;;;;;;;3.20;1.53;;;8.50;99.90;;;;;;5054488;28;20188;-68
2023/11/03 09:13:54;;;;;;;7.47;1.83;;;8.40;99.90;;;;;;5035676;28;20235;-68
2023/11/03 09:16:21;;;;;;;4.60;2.90;;;8.40;99.90;;;;;;5054212;28;20957;-68
2023/11/03 09:18:46;;;;;;;1.70;1.40;;;8.50;99.90;;;;;;5054210;28;20414;-69
2023/11/03 09:21:13;;;;;;;2.13;1.23;;;8.50;99.90;;;;;;5054207;28;20876;-68
2023/11/03 09:23:38;;;;;;;1.83;1.67;;;8.50;99.90;;;;;;5053910;28;20169;-69
2023/11/03 09:26:04;;;;;;;3.10;1.40;;;8.50;99.90;;;;;;5054150;28;20467;-68
2023/11/03 09:28:30;;;;;;;2.03;1.10;;;8.60;99.90;;;;;;5054113;28;20628;-68
2023/11/03 09:30:57;;;;;;;3.57;1.70;;;8.60;99.90;;;;;;5053819;28;20542;-69
2023/11/03 09:33:22;;;;;;;2.73;1.50;;;8.70;99.90;;;;;;5053766;28;20647;-68
2023/11/03 09:35:48;;;;;;;4.07;1.50;;;8.80;99.90;;;;;;5053802;28;20500;-68
2023/11/03 09:38:19;;;;;;;2.63;1.20;;;8.80;99.90;;;;;;5052991;28;20590;-68
2023/11/03 09:40:44;;;;;;;2.97;2.00;;;8.80;99.90;;;;;;5053721;28;20197;-69
2023/11/03 09:43:10;;;;;;;2.70;1.40;;;8.80;99.90;;;;;;5053317;28;20438;-69
2023/11/03 09:45:38;;;;;;;2.33;2.13;;;8.90;99.90;;;;;;5053885;28;20420;-68
2023/11/03 09:48:05;;;;;;;3.83;1.57;;;9.10;99.90;;;;;;5053673;28;20424;-68
2023/11/03 09:50:31;;;;;;;2.33;1.77;;;9.20;99.90;;;;;;5053574;28;20479;-69
2023/11/03 09:52:59;;;;;;;3.63;1.80;;;9.40;99.90;;;;;;5053376;28;20455;-68
2023/11/03 09:55:27;;;;;;;9.30;1.60;;;9.40;99.90;;;;;;5053579;28;20543;-69
2023/11/03 09:58:01;;;;;;;2.73;1.53;;;9.30;99.90;;;;;;5053478;28;20424;-69
2023/11/03 10:00:27;;;;;;;4.00;1.40;;;9.40;99.90;;;;;;5053446;28;20485;-68
2023/11/03 10:02:53;;;;;;;1.63;1.47;;;9.60;99.90;;;;;;5053182;28;20423;-69
2023/11/03 10:05:19;;;;;;;2.23;1.47;;;9.60;99.90;;;;;;5053444;28;20412;-69
2023/11/03 10:08:02;;;;;;;2.37;1.60;;;9.80;99.90;;;;;;5053361;28;20173;-68
2023/11/03 10:10:29;;;;;;;2.80;1.30;;;9.90;99.90;;;;;;5053220;28;20193;-68
2023/11/03 10:12:57;;;;;;;2.60;1.43;;;9.90;99.90;;;;;;5052433;28;20485;-69
2023/11/03 10:15:24;;;;;;;1.20;0.97;;;10.00;99.90;;;;;;5053207;28;20412;-68
2023/11/03 10:17:50;;;;;;;4.53;2.20;;;10.00;99.90;;;;;;5053129;28;20511;-68
2023/11/03 10:20:20;;;;;;;1.70;1.30;;;9.90;99.90;;;;;;5053027;28;20489;-68
2023/11/03 10:22:47;;;;;;;2.60;1.80;;;10.00;99.90;;;;;;5052757;28;20689;-68
2023/11/03 10:25:14;;;;;;;3.63;1.87;;;10.20;99.90;;;;;;5052977;28;20937;-68
2023/11/03 10:27:39;;;;;;;1.77;1.10;;;10.50;99.90;;;;;;5053122;28;20416;-68
2023/11/03 10:30:06;;;;;;;3.80;1.40;;;10.60;99.90;;;;;;5052498;28;20491;-69
2023/11/03 10:32:33;;;;;;;1.47;1.20;;;10.40;99.90;;;;;;5052698;28;20272;-68
2023/11/03 10:35:02;;;;;;;1.87;1.20;;;10.50;99.90;;;;;;5052705;28;20420;-68
2023/11/03 10:37:31;;;;;;;2.60;1.17;;;10.60;99.90;;;;;;5052640;28;20420;-69
2023/11/03 10:39:56;;;;;;;1.47;1.37;;;10.40;99.90;;;;;;5052458;28;20455;-67
2023/11/03 10:42:25;;;;;;;1.20;0.93;;;10.40;99.90;;;;;;5052392;28;20478;-69
2023/11/03 10:44:56;;;;;;;3.47;1.40;;;10.60;99.90;;;;;;5052399;28;20174;-68
2023/11/03 10:47:27;;;;;;;4.10;1.20;;;10.60;99.90;;;;;;5052423;28;20448;-69
2023/11/03 10:50:00;;;;;;;2.63;1.33;;;10.80;99.90;;;;;;5052343;28;20419;-69
2023/11/03 10:52:28;;;;;;;3.97;1.80;;;10.80;99.90;;;;;;5052535;28;20455;-69
2023/11/03 10:55:14;;;;;;;2.47;1.07;;;10.90;99.90;;;;;;5052252;28;20423;-69
2023/11/03 10:57:40;;;;;;;4.83;1.30;;;10.60;99.90;;;;;;5052519;28;20412;-69
2023/11/03 11:00:12;;;;;;;2.50;1.20;;;10.40;99.90;;;;;;5052286;28;20487;-68
2023/11/03 11:02:46;;;;;;;3.60;0.83;;;10.30;99.90;;;;;;5052017;28;20440;-68
2023/11/03 11:05:31;;;;;;;2.50;1.40;;;10.30;99.90;;;;;;5052378;28;20412;-69
2023/11/03 11:08:01;;;;;;;3.70;1.40;;;10.20;99.90;;;;;;5052393;28;20825;-68
2023/11/03 11:10:45;;;;;;;1.30;1.20;;;10.20;99.90;;;;;;5052255;28;20435;-69
2023/11/03 11:13:22;;;;;;;1.73;1.63;;;10.20;99.90;;;;;;5051955;28;20448;-69
2023/11/03 11:15:56;;;;;;;1.90;1.37;;;10.30;99.90;;;;;;5052132;28;20430;-69
2023/11/03 11:18:29;;;;;;;1.90;1.00;;;10.40;99.90;;;;;;5052085;28;20825;-69
2023/11/03 11:21:00;;;;;;;1.50;1.03;;;10.40;99.90;;;;;;5051963;28;20546;-69
2023/11/03 11:23:33;;;;;;;1.50;1.40;;;10.40;99.90;;;;;;5051868;28;20412;-69
2023/11/03 11:26:00;;;;;;;2.17;1.50;;;10.40;99.90;;;;;;5051546;28;20940;-68
2023/11/03 11:28:36;;;;;;;0.73;0.73;;;10.40;99.90;;;;;;5051805;28;20428;-69
2023/11/03 11:31:27;;;;;;;1.40;1.00;;;10.50;99.90;;;;;;5051825;28;20459;-70
2023/11/03 11:34:05;;;;;;;1.33;0.97;;;10.50;99.90;;;;;;5051602;28;21138;-69
2023/11/03 11:36:33;;;;;;;1.20;0.97;;;10.50;99.90;;;;;;5051931;28;20411;-69
2023/11/03 11:39:13;;;;;;;1.07;0.73;;;10.50;99.90;;;;;;5051803;28;20416;-69
2023/11/03 11:41:47;;;;;;;1.23;0.90;;;10.30;99.90;;;;;;5051851;28;20794;-71
2023/11/03 11:44:22;;;;;;;14.10;4.40;;;10.20;99.90;;;;;;5052019;28;20468;-65
2023/11/03 11:46:57;;;;;;;2.47;0.90;;;10.20;99.90;;;;;;5052012;28;20917;-65
2023/11/03 11:49:26;;;;;;;1.70;1.40;;;10.30;99.90;;;;;;5046596;28;20424;-63
2023/11/03 11:51:53;;;;;;;1.43;0.80;;;10.40;99.90;;;;;;5046003;28;20509;-63
2023/11/03 11:54:19;;;;;;;0.83;0.70;;;10.40;99.90;;;;;;5051466;28;20939;-62
2023/11/03 11:56:46;;;;;;;0.90;0.80;;;10.50;99.90;;;;;;5050833;28;21211;-65
2023/11/03 11:59:20;;;;;;;3.53;1.97;;;10.40;99.90;;;;;;5049481;28;20420;-65
2023/11/03 12:01:46;;;;;;;1.80;0.73;;;10.30;99.90;;;;;;5055186;28;20443;-65
2023/11/03 12:04:16;;;;;;;1.53;0.50;;;10.40;99.90;;;;;;5055487;28;20420;-65
2023/11/03 12:06:43;;;;;;;1.23;0.77;;;10.60;99.90;;;;;;5055718;28;20408;-64
2023/11/03 12:09:10;;;;;;;1.30;0.90;;;10.70;99.90;;;;;;5055498;28;20474;-66
2023/11/03 12:11:40;;;;;;;0.83;0.60;;;10.80;99.90;;;;;;5055488;28;20428;-64
2023/11/03 12:14:06;;;;;;;1.90;1.07;;;10.60;99.90;;;;;;5055253;28;20554;-64
2023/11/03 12:16:34;;;;;;;2.10;0.87;;;10.60;99.90;;;;;;5055523;28;20416;-64
2023/11/03 12:18:59;;;;;;;2.17;0.90;;;10.50;99.90;;;;;;5055402;28;20408;-64
2023/11/03 12:21:25;;;;;;;3.40;0.80;;;10.60;99.90;;;;;;5060476;28;20834;-65
2023/11/03 12:23:55;;;;;;;1.90;1.20;;;10.60;99.90;;;;;;5055022;28;20240;-64
2023/11/03 12:26:20;;;;;;;0.70;0.70;;;10.40;99.90;;;;;;5055210;28;20165;-64
2023/11/03 12:28:46;;;;;;;1.63;0.70;;;10.50;99.90;;;;;;5055150;28;20427;-64
2023/11/03 12:31:12;;;;;;;1.13;0.80;;;10.40;99.90;;;;;;5055026;28;20216;-64
2023/11/03 12:33:38;;;;;;;1.53;0.80;;;10.50;99.90;;;;;;5054895;28;20166;-65
2023/11/03 12:36:07;;;;;;;0.90;0.60;;;10.50;99.90;;;;;;5055021;28;20482;-64
2023/11/03 12:38:44;;;;;;;2.27;1.30;;;10.50;99.90;;;;;;5055275;28;20420;-65
2023/11/03 12:41:13;;;;;;;0.63;0.63;;;10.40;99.90;;;;;;5054323;28;20980;-64
2023/11/03 12:43:59;;;;;;;1.37;1.10;;;10.40;99.90;;;;;;5054626;28;20917;-64
2023/11/03 12:46:25;;;;;;;1.13;0.90;;;10.30;99.90;;;;;;5040131;28;20491;-64
2023/11/03 12:49:05;;;;;;;1.10;0.90;;;10.20;99.90;;;;;;5054820;28;20424;-64
2023/11/03 12:51:32;;;;;;;0.70;0.60;;;10.30;99.90;;;;;;5054835;28;20790;-66
2023/11/03 12:53:58;;;;;;;2.87;0.80;;;10.50;99.90;;;;;;5053281;28;20431;-66